Terminal Aerodrome Forecast
Issued by NWS Northern Indiana

Home | Current Version | Previous Version | Text Only | Print | Product List | Glossary On
Versions: 1 2 3 4 5 6 7 8 9 10 11 12
000
FTUS43 KIWX 301700
TAFFWA
TAF
KFWA 301728Z 3018/3118 28015G23KT P6SM SCT060
     FM310000 21006KT P6SM BKN060
     FM310500 22015KT P6SM BKN060 WS020/26050KT
     FM311200 31010KT P6SM SCT025=

USA.gov is the U.S. government's official web portal to all federal, state and local government web resources and services.